^^
Saratoga-Weather Station Historical Data
Daily Summary for February 18, 2021 Units:  Both    English   Metric
Daily Weekly Monthly Yearly Custom
  High: Low: Average:
Temperature: 84.4 °F /  29.1 °C 61.5 °F /  16.4 °C 73 °F /  22.8 °C
Dew Point: 63.1 °F /  17.3 °C 57.4 °F /  14.1 °C 60.3 °F /  15.7 °C
Humidity: 87% 43% 67%
Wind Speed: 8.9mph /  14.3km/h - 2.4mph /  3.9km/h
Wind Gust: 13mph /  20.9km/h - -
Wind- - SSW
Pressure: 30.2 in /  1021.7 hPa 30.1 in /  1018.3 hPa -
Precipitation: 0 in /  0.0 mm    
Historical Graphs
 
 
Tabular Data for February 18, 2021
Time Temperature Dew Point Pressure Wind Wind Speed Wind Gust Humidity Rainfall Rate (Hourly) solar
00:02 69.3 °F /  20.7 °C 62.1 °F /  16.7 °C 30.2in /  1021.7hPa Calm   3mph /  4.8km/h 78% 0in /  0.0mm 0 W/m2
00:07 69.3 °F /  20.7 °C 62.1 °F /  16.7 °C 30.2in /  1021.3hPa WNW 0.9mph /  1.4km/h 3mph /  4.8km/h 78% 0in /  0.0mm 0 W/m2
00:12 69.1 °F /  20.6 °C 61.9 °F /  16.6 °C 30.2in /  1021.3hPa NW 2mph /  3.2km/h 6mph /  9.7km/h 78% 0in /  0.0mm 0 W/m2
00:17 69.1 °F /  20.6 °C 61.9 °F /  16.6 °C 30.2in /  1021.3hPa WNW 0.9mph /  1.4km/h 2mph /  3.2km/h 78% 0in /  0.0mm 0 W/m2
00:22 69.1 °F /  20.6 °C 61.9 °F /  16.6 °C 30.2in /  1021.3hPa WNW 0.9mph /  1.4km/h 6mph /  9.7km/h 78% 0in /  0.0mm 0 W/m2
00:27 69.1 °F /  20.6 °C 61.9 °F /  16.6 °C 30.2in /  1021.3hPa WNW 0.9mph /  1.4km/h 7mph /  11.3km/h 78% 0in /  0.0mm 0 W/m2
00:32 69.1 °F /  20.6 °C 61.9 °F /  16.6 °C 30.2in /  1021.3hPa WNW 2.9mph /  4.7km/h 3mph /  4.8km/h 78% 0in /  0.0mm 0 W/m2
00:37 68.9 °F /  20.5 °C 61.7 °F /  16.5 °C 30.2in /  1021.3hPa WNW 2mph /  3.2km/h 7mph /  11.3km/h 78% 0in /  0.0mm 0 W/m2
00:42 68.7 °F /  20.4 °C 61.2 °F /  16.2 °C 30.2in /  1021.7hPa WNW 2mph /  3.2km/h 9mph /  14.5km/h 77% 0in /  0.0mm 0 W/m2
00:47 68.9 °F /  20.5 °C 61.3 °F /  16.3 °C 30.2in /  1021.7hPa NW 2mph /  3.2km/h 3mph /  4.8km/h 77% 0in /  0.0mm 0 W/m2
00:52 68.9 °F /  20.5 °C 61.3 °F /  16.3 °C 30.2in /  1021.3hPa WNW 0.9mph /  1.4km/h 8mph /  12.9km/h 77% 0in /  0.0mm 0 W/m2
00:57 68.9 °F /  20.5 °C 61 °F /  16.1 °C 30.2in /  1021.7hPa WNW 2.9mph /  4.7km/h 3mph /  4.8km/h 76% 0in /  0.0mm 0 W/m2
01:02 68.7 °F /  20.4 °C 60.8 °F /  16 °C 30.2in /  1021.3hPa West 2mph /  3.2km/h 3mph /  4.8km/h 76% 0in /  0.0mm 0 W/m2
01:07 68.7 °F /  20.4 °C 60.8 °F /  16 °C 30.2in /  1021.3hPa West 2.9mph /  4.7km/h 4mph /  6.4km/h 76% 0in /  0.0mm 0 W/m2
01:12 68.5 °F /  20.3 °C 60.6 °F /  15.9 °C 30.2in /  1021.3hPa West 2.9mph /  4.7km/h 3mph /  4.8km/h 76% 0in /  0.0mm 0 W/m2
01:17 68.5 °F /  20.3 °C 60.6 °F /  15.9 °C 30.2in /  1021.3hPa WNW 0.9mph /  1.4km/h 4mph /  6.4km/h 76% 0in /  0.0mm 0 W/m2
01:22 68.4 °F /  20.2 °C 60.8 °F /  16 °C 30.2in /  1021.3hPa West 2.9mph /  4.7km/h 4mph /  6.4km/h 77% 0in /  0.0mm 0 W/m2
01:27 68.2 °F /  20.1 °C 60.3 °F /  15.7 °C 30.2in /  1021.3hPa WNW 2.9mph /  4.7km/h 5mph /  8km/h 76% 0in /  0.0mm 0 W/m2
01:32 68.2 °F /  20.1 °C 60.3 °F /  15.7 °C 30.2in /  1021.3hPa WNW 2.9mph /  4.7km/h 4mph /  6.4km/h 76% 0in /  0.0mm 0 W/m2
01:37 68.2 °F /  20.1 °C 60.3 °F /  15.7 °C 30.2in /  1021.3hPa NNW 0.9mph /  1.4km/h 4mph /  6.4km/h 76% 0in /  0.0mm 0 W/m2
01:42 68 °F /  20 °C 60.1 °F /  15.6 °C 30.2in /  1021.3hPa WSW 4.9mph /  7.9km/h 5mph /  8km/h 76% 0in /  0.0mm 0 W/m2
01:47 68 °F /  20 °C 60.1 °F /  15.6 °C 30.2in /  1021.3hPa Calm   4mph /  6.4km/h 76% 0in /  0.0mm 0 W/m2
01:52 67.8 °F /  19.9 °C 59.9 °F /  15.5 °C 30.2in /  1021.3hPa WNW 0.9mph /  1.4km/h 4mph /  6.4km/h 76% 0in /  0.0mm 0 W/m2
01:57 67.6 °F /  19.8 °C 59.7 °F /  15.4 °C 30.2in /  1021.3hPa West 6mph /  9.7km/h 6mph /  9.7km/h 76% 0in /  0.0mm 0 W/m2
02:02 67.5 °F /  19.7 °C 60.1 °F /  15.6 °C 30.2in /  1021.3hPa West 4mph /  6.4km/h 4mph /  6.4km/h 77% 0in /  0.0mm 0 W/m2
02:07 67.5 °F /  19.7 °C 60.1 °F /  15.6 °C 30.2in /  1021.3hPa West 0.9mph /  1.4km/h 8mph /  12.9km/h 77% 0in /  0.0mm 0 W/m2
02:12 67.3 °F /  19.6 °C 59.9 °F /  15.5 °C 30.2in /  1021.3hPa NW 6mph /  9.7km/h 7mph /  11.3km/h 77% 0in /  0.0mm 0 W/m2
02:17 67.1 °F /  19.5 °C 59.7 °F /  15.4 °C 30.2in /  1021.3hPa WNW 2.9mph /  4.7km/h 8mph /  12.9km/h 77% 0in /  0.0mm 0 W/m2
02:22 66.9 °F /  19.4 °C 59.5 °F /  15.3 °C 30.2in /  1021.3hPa WNW 2mph /  3.2km/h 2mph /  3.2km/h 77% 0in /  0.0mm 0 W/m2
02:27 66.6 °F /  19.2 °C 59.5 °F /  15.3 °C 30.2in /  1021.3hPa WNW 2.9mph /  4.7km/h 5mph /  8km/h 78% 0in /  0.0mm 0 W/m2
02:32 66.6 °F /  19.2 °C 59.5 °F /  15.3 °C 30.2in /  1021.3hPa WNW 0.9mph /  1.4km/h 6mph /  9.7km/h 78% 0in /  0.0mm 0 W/m2
02:37 66.4 °F /  19.1 °C 59.4 °F /  15.2 °C 30.2in /  1021.3hPa WNW 2.9mph /  4.7km/h 7mph /  11.3km/h 78% 0in /  0.0mm 0 W/m2
02:42 66.2 °F /  19 °C 59.2 °F /  15.1 °C 30.2in /  1021.3hPa WSW 6mph /  9.7km/h 8mph /  12.9km/h 78% 0in /  0.0mm 0 W/m2
02:47 66 °F /  18.9 °C 59 °F /  15 °C 30.2in /  1021.3hPa WNW 2mph /  3.2km/h 6mph /  9.7km/h 78% 0in /  0.0mm 0 W/m2
02:52 66 °F /  18.9 °C 59 °F /  15 °C 30.2in /  1021.3hPa WNW 2mph /  3.2km/h 8mph /  12.9km/h 78% 0in /  0.0mm 0 W/m2
02:57 65.8 °F /  18.8 °C 58.8 °F /  14.9 °C 30.2in /  1021.3hPa West 4mph /  6.4km/h 8mph /  12.9km/h 78% 0in /  0.0mm 0 W/m2
03:02 65.8 °F /  18.8 °C 58.8 °F /  14.9 °C 30.2in /  1021.3hPa NW 2.9mph /  4.7km/h 4mph /  6.4km/h 78% 0in /  0.0mm 0 W/m2
03:07 65.7 °F /  18.7 °C 58.6 °F /  14.8 °C 30.2in /  1021.3hPa NNW 2mph /  3.2km/h 8mph /  12.9km/h 78% 0in /  0.0mm 0 W/m2
03:12 65.5 °F /  18.6 °C 58.8 °F /  14.9 °C 30.2in /  1021.3hPa WSW 2mph /  3.2km/h 3mph /  4.8km/h 79% 0in /  0.0mm 0 W/m2
03:17 65.3 °F /  18.5 °C 58.6 °F /  14.8 °C 30.2in /  1021.3hPa NW 0.9mph /  1.4km/h 5mph /  8km/h 79% 0in /  0.0mm 0 W/m2
03:22 65.1 °F /  18.4 °C 58.5 °F /  14.7 °C 30.2in /  1021.3hPa Calm   6mph /  9.7km/h 79% 0in /  0.0mm 0 W/m2
03:27 65.1 °F /  18.4 °C 58.5 °F /  14.7 °C 30.2in /  1021.3hPa West 2.9mph /  4.7km/h 3mph /  4.8km/h 79% 0in /  0.0mm 0 W/m2
03:32 64.9 °F /  18.3 °C 58.3 °F /  14.6 °C 30.2in /  1021.3hPa ENE 0.9mph /  1.4km/h 5mph /  8km/h 79% 0in /  0.0mm 0 W/m2
03:37 64.8 °F /  18.2 °C 58.1 °F /  14.5 °C 30.2in /  1021.3hPa Calm   1mph /  1.6km/h 79% 0in /  0.0mm 0 W/m2
03:42 64.6 °F /  18.1 °C 58.3 °F /  14.6 °C 30.2in /  1021.3hPa West 0.9mph /  1.4km/h 5mph /  8km/h 80% 0in /  0.0mm 0 W/m2
03:47 64.2 °F /  17.9 °C 58.3 °F /  14.6 °C 30.2in /  1021.3hPa Calm   2mph /  3.2km/h 81% 0in /  0.0mm 0 W/m2
03:52 64 °F /  17.8 °C 58.5 °F /  14.7 °C 30.2in /  1021.3hPa Calm     82% 0in /  0.0mm 0 W/m2
03:57 63.7 °F /  17.6 °C 58.1 °F /  14.5 °C 30.2in /  1021.3hPa Calm     82% 0in /  0.0mm 0 W/m2
04:03 63.1 °F /  17.3 °C 57.9 °F /  14.4 °C 30.2in /  1021.3hPa Calm   3mph /  4.8km/h 83% 0in /  0.0mm 0 W/m2
04:08 63 °F /  17.2 °C 58.1 °F /  14.5 °C 30.2in /  1021.3hPa South 2mph /  3.2km/h 2mph /  3.2km/h 84% 0in /  0.0mm 0 W/m2
04:13 62.8 °F /  17.1 °C 57.9 °F /  14.4 °C 30.2in /  1021.3hPa SSE 2mph /  3.2km/h 4mph /  6.4km/h 84% 0in /  0.0mm 0 W/m2
04:18 62.8 °F /  17.1 °C 57.9 °F /  14.4 °C 30.2in /  1021.3hPa Calm   1mph /  1.6km/h 84% 0in /  0.0mm 0 W/m2
04:23 62.8 °F /  17.1 °C 57.9 °F /  14.4 °C 30.2in /  1021.3hPa East 0.9mph /  1.4km/h 3mph /  4.8km/h 84% 0in /  0.0mm 0 W/m2
04:28 62.4 °F /  16.9 °C 57.6 °F /  14.2 °C 30.2in /  1021.3hPa ENE 0.9mph /  1.4km/h 2mph /  3.2km/h 84% 0in /  0.0mm 0 W/m2
04:33 62.2 °F /  16.8 °C 57.7 °F /  14.3 °C 30.2in /  1021.3hPa WNW 2mph /  3.2km/h 5mph /  8km/h 85% 0in /  0.0mm 0 W/m2
04:38 62.4 °F /  16.9 °C 57.9 °F /  14.4 °C 30.2in /  1021.3hPa West 2mph /  3.2km/h 6mph /  9.7km/h 85% 0in /  0.0mm 0 W/m2
04:43 62.8 °F /  17.1 °C 57.9 °F /  14.4 °C 30.2in /  1021.3hPa WNW 2mph /  3.2km/h 5mph /  8km/h 84% 0in /  0.0mm 0 W/m2
04:48 63 °F /  17.2 °C 58.1 °F /  14.5 °C 30.2in /  1021.3hPa West 0.9mph /  1.4km/h 2mph /  3.2km/h 84% 0in /  0.0mm 0 W/m2
04:53 63 °F /  17.2 °C 57.7 °F /  14.3 °C 30.2in /  1021.3hPa West 0.9mph /  1.4km/h 4mph /  6.4km/h 83% 0in /  0.0mm 0 W/m2
04:58 62.8 °F /  17.1 °C 57.9 °F /  14.4 °C 30.2in /  1021.3hPa NNW 0.9mph /  1.4km/h 3mph /  4.8km/h 84% 0in /  0.0mm 0 W/m2
05:03 62.8 °F /  17.1 °C 57.9 °F /  14.4 °C 30.2in /  1021.3hPa SSW 2mph /  3.2km/h 3mph /  4.8km/h 84% 0in /  0.0mm 0 W/m2
05:08 62.4 °F /  16.9 °C 57.9 °F /  14.4 °C 30.2in /  1021.3hPa Calm   2mph /  3.2km/h 85% 0in /  0.0mm 0 W/m2
05:13 62.2 °F /  16.8 °C 57.7 °F /  14.3 °C 30.2in /  1021.0hPa WSW 0.9mph /  1.4km/h 3mph /  4.8km/h 85% 0in /  0.0mm 0 W/m2
05:18 62.2 °F /  16.8 °C 57.7 °F /  14.3 °C 30.2in /  1021.0hPa WNW 0.9mph /  1.4km/h 3mph /  4.8km/h 85% 0in /  0.0mm 0 W/m2
05:23 62.2 °F /  16.8 °C 57.7 °F /  14.3 °C 30.2in /  1021.0hPa West 2mph /  3.2km/h 2mph /  3.2km/h 85% 0in /  0.0mm 0 W/m2
05:28 62.1 °F /  16.7 °C 57.6 °F /  14.2 °C 30.2in /  1021.3hPa South 2mph /  3.2km/h 2mph /  3.2km/h 85% 0in /  0.0mm 0 W/m2
05:33 62.1 °F /  16.7 °C 57.7 °F /  14.3 °C 30.2in /  1021.0hPa Calm   2mph /  3.2km/h 86% 0in /  0.0mm 0 W/m2
05:38 61.7 °F /  16.5 °C 57.4 °F /  14.1 °C 30.2in /  1021.0hPa WNW 2mph /  3.2km/h 4mph /  6.4km/h 86% 0in /  0.0mm 0 W/m2
05:43 61.5 °F /  16.4 °C 57.6 °F /  14.2 °C 30.2in /  1021.0hPa Calm   3mph /  4.8km/h 87% 0in /  0.0mm 0 W/m2
05:48 61.5 °F /  16.4 °C 57.6 °F /  14.2 °C 30.2in /  1021.0hPa NW 0.9mph /  1.4km/h 4mph /  6.4km/h 87% 0in /  0.0mm 0 W/m2
05:53 61.7 °F /  16.5 °C 57.7 °F /  14.3 °C 30.2in /  1021.0hPa West 2.9mph /  4.7km/h 7mph /  11.3km/h 87% 0in /  0.0mm 5 W/m2
05:58 62.1 °F /  16.7 °C 58.1 °F /  14.5 °C 30.2in /  1021.0hPa WNW 2.9mph /  4.7km/h 4mph /  6.4km/h 87% 0in /  0.0mm 7 W/m2
06:03 62.1 °F /  16.7 °C 57.7 °F /  14.3 °C 30.2in /  1021.0hPa WSW 0.9mph /  1.4km/h 2mph /  3.2km/h 86% 0in /  0.0mm 9 W/m2
06:08 62.2 °F /  16.8 °C 57.9 °F /  14.4 °C 30.2in /  1021.0hPa West 0.9mph /  1.4km/h 3mph /  4.8km/h 86% 0in /  0.0mm 12 W/m2
06:13 62.1 °F /  16.7 °C 57.7 °F /  14.3 °C 30.2in /  1021.0hPa NNE 0.9mph /  1.4km/h 2mph /  3.2km/h 86% 0in /  0.0mm 14 W/m2
06:18 62.1 °F /  16.7 °C 57.7 °F /  14.3 °C 30.2in /  1021.0hPa East 0.9mph /  1.4km/h 1mph /  1.6km/h 86% 0in /  0.0mm 16 W/m2
06:23 62.1 °F /  16.7 °C 58.1 °F /  14.5 °C 30.2in /  1021.0hPa Calm   4mph /  6.4km/h 87% 0in /  0.0mm 19 W/m2
06:28 61.9 °F /  16.6 °C 57.9 °F /  14.4 °C 30.2in /  1021.0hPa Calm   3mph /  4.8km/h 87% 0in /  0.0mm 21 W/m2
06:33 61.9 °F /  16.6 °C 57.9 °F /  14.4 °C 30.2in /  1021.0hPa Calm   4mph /  6.4km/h 87% 0in /  0.0mm 23 W/m2
06:38 61.9 °F /  16.6 °C 57.9 °F /  14.4 °C 30.2in /  1021.0hPa NNW 2mph /  3.2km/h 6mph /  9.7km/h 87% 0in /  0.0mm 26 W/m2
06:43 61.9 °F /  16.6 °C 57.9 °F /  14.4 °C 30.2in /  1021.0hPa NNW 2mph /  3.2km/h 3mph /  4.8km/h 87% 0in /  0.0mm 28 W/m2
06:48 61.9 °F /  16.6 °C 57.9 °F /  14.4 °C 30.2in /  1021.0hPa NNE 2.9mph /  4.7km/h 6mph /  9.7km/h 87% 0in /  0.0mm 28 W/m2
06:53 62.1 °F /  16.7 °C 58.1 °F /  14.5 °C 30.2in /  1021.0hPa SSE 0.9mph /  1.4km/h 5mph /  8km/h 87% 0in /  0.0mm 30 W/m2
06:58 62.1 °F /  16.7 °C 58.1 °F /  14.5 °C 30.2in /  1021.3hPa NNW 2mph /  3.2km/h 6mph /  9.7km/h 87% 0in /  0.0mm 32 W/m2
07:03 62.2 °F /  16.8 °C 58.3 °F /  14.6 °C 30.2in /  1021.3hPa NE 0.9mph /  1.4km/h 4mph /  6.4km/h 87% 0in /  0.0mm 32 W/m2
07:08 62.2 °F /  16.8 °C 58.3 °F /  14.6 °C 30.2in /  1021.3hPa West 0.9mph /  1.4km/h 5mph /  8km/h 87% 0in /  0.0mm 33 W/m2
07:13 62.4 °F /  16.9 °C 58.5 °F /  14.7 °C 30.2in /  1021.3hPa ESE 0.9mph /  1.4km/h 2mph /  3.2km/h 87% 0in /  0.0mm 33 W/m2
07:18 62.4 °F /  16.9 °C 58.5 °F /  14.7 °C 30.2in /  1021.3hPa ENE 2.9mph /  4.7km/h 5mph /  8km/h 87% 0in /  0.0mm 35 W/m2
07:23 62.4 °F /  16.9 °C 58.5 °F /  14.7 °C 30.2in /  1021.3hPa NNE 2mph /  3.2km/h 4mph /  6.4km/h 87% 0in /  0.0mm 37 W/m2
07:28 62.8 °F /  17.1 °C 58.8 °F /  14.9 °C 30.2in /  1021.3hPa ENE 0.9mph /  1.4km/h 3mph /  4.8km/h 87% 0in /  0.0mm 37 W/m2
07:33 62.8 °F /  17.1 °C 58.8 °F /  14.9 °C 30.2in /  1021.3hPa ENE 2.9mph /  4.7km/h 5mph /  8km/h 87% 0in /  0.0mm 39 W/m2
07:38 63 °F /  17.2 °C 59 °F /  15 °C 30.2in /  1021.3hPa NW 2mph /  3.2km/h 4mph /  6.4km/h 87% 0in /  0.0mm 39 W/m2
07:43 63 °F /  17.2 °C 59 °F /  15 °C 30.2in /  1021.3hPa NW 4.9mph /  7.9km/h 5mph /  8km/h 87% 0in /  0.0mm 40 W/m2
07:48 63.1 °F /  17.3 °C 59.2 °F /  15.1 °C 30.2in /  1021.3hPa WNW 6.9mph /  11.1km/h 8mph /  12.9km/h 87% 0in /  0.0mm 42 W/m2
07:53 63.3 °F /  17.4 °C 59 °F /  15 °C 30.2in /  1021.3hPa NNE 2.9mph /  4.7km/h 6mph /  9.7km/h 86% 0in /  0.0mm 67 W/m2
07:58 63.5 °F /  17.5 °C 59.2 °F /  15.1 °C 30.2in /  1021.3hPa NW 0.9mph /  1.4km/h 6mph /  9.7km/h 86% 0in /  0.0mm 202 W/m2
08:03 63.9 °F /  17.7 °C 59.5 °F /  15.3 °C 30.2in /  1021.3hPa NW 4.9mph /  7.9km/h 5mph /  8km/h 86% 0in /  0.0mm 206 W/m2
08:08 64.2 °F /  17.9 °C 59.9 °F /  15.5 °C 30.2in /  1021.3hPa ENE 6mph /  9.7km/h 6mph /  9.7km/h 86% 0in /  0.0mm 98 W/m2
08:13 64.8 °F /  18.2 °C 59.9 °F /  15.5 °C 30.2in /  1021.3hPa NE 0.9mph /  1.4km/h 6mph /  9.7km/h 84% 0in /  0.0mm 53 W/m2
08:18 65.1 °F /  18.4 °C 60.1 °F /  15.6 °C 30.2in /  1021.3hPa WSW 2mph /  3.2km/h 3mph /  4.8km/h 84% 0in /  0.0mm 51 W/m2
08:23 65.5 °F /  18.6 °C 60.4 °F /  15.8 °C 30.2in /  1021.3hPa NW 0.9mph /  1.4km/h 5mph /  8km/h 84% 0in /  0.0mm 51 W/m2
08:28 65.5 °F /  18.6 °C 60.3 °F /  15.7 °C 30.2in /  1021.3hPa North 4.9mph /  7.9km/h 5mph /  8km/h 83% 0in /  0.0mm 51 W/m2
08:33 65.8 °F /  18.8 °C 60.6 °F /  15.9 °C 30.2in /  1021.7hPa North 2.9mph /  4.7km/h 5mph /  8km/h 83% 0in /  0.0mm 49 W/m2
08:38 65.8 °F /  18.8 °C 60.6 °F /  15.9 °C 30.2in /  1021.7hPa ENE 0.9mph /  1.4km/h 4mph /  6.4km/h 83% 0in /  0.0mm 51 W/m2
08:43 66.2 °F /  19 °C 60.6 °F /  15.9 °C 30.2in /  1021.7hPa East 0.9mph /  1.4km/h 6mph /  9.7km/h 82% 0in /  0.0mm 49 W/m2
08:48 66.6 °F /  19.2 °C 60.6 °F /  15.9 °C 30.2in /  1021.3hPa SSE 2mph /  3.2km/h 5mph /  8km/h 81% 0in /  0.0mm 51 W/m2
08:53 66.9 °F /  19.4 °C 60.6 °F /  15.9 °C 30.2in /  1021.7hPa ENE 4.9mph /  7.9km/h 6mph /  9.7km/h 80% 0in /  0.0mm 51 W/m2
08:58 67.3 °F /  19.6 °C 60.6 °F /  15.9 °C 30.2in /  1021.7hPa North 2.9mph /  4.7km/h 5mph /  8km/h 79% 0in /  0.0mm 51 W/m2
09:03 67.3 °F /  19.6 °C 61 °F /  16.1 °C 30.2in /  1021.7hPa WSW 0.9mph /  1.4km/h 6mph /  9.7km/h 80% 0in /  0.0mm 107 W/m2
09:08 67.5 °F /  19.7 °C 60.8 °F /  16 °C 30.2in /  1021.7hPa NE 0.9mph /  1.4km/h 7mph /  11.3km/h 79% 0in /  0.0mm 283 W/m2
09:13 67.8 °F /  19.9 °C 61 °F /  16.1 °C 30.2in /  1021.7hPa ENE 2mph /  3.2km/h 5mph /  8km/h 79% 0in /  0.0mm 415 W/m2
09:18 68.2 °F /  20.1 °C 60.6 °F /  15.9 °C 30.2in /  1021.7hPa NNW 2mph /  3.2km/h 5mph /  8km/h 77% 0in /  0.0mm 445 W/m2
09:23 68.4 °F /  20.2 °C 60.4 °F /  15.8 °C 30.2in /  1021.7hPa NNE 2.9mph /  4.7km/h 6mph /  9.7km/h 76% 0in /  0.0mm 459 W/m2
09:28 68.5 °F /  20.3 °C 60.6 °F /  15.9 °C 30.2in /  1021.7hPa NE 2mph /  3.2km/h 6mph /  9.7km/h 76% 0in /  0.0mm 475 W/m2
09:33 68.9 °F /  20.5 °C 60.6 °F /  15.9 °C 30.2in /  1021.7hPa NNE 0.9mph /  1.4km/h 4mph /  6.4km/h 75% 0in /  0.0mm 489 W/m2
09:38 69.1 °F /  20.6 °C 60.4 °F /  15.8 °C 30.2in /  1021.7hPa NNW 4mph /  6.4km/h 5mph /  8km/h 74% 0in /  0.0mm 504 W/m2
09:43 69.4 °F /  20.8 °C 60.4 °F /  15.8 °C 30.2in /  1021.7hPa ENE 0.9mph /  1.4km/h 4mph /  6.4km/h 73% 0in /  0.0mm 519 W/m2
09:48 69.8 °F /  21 °C 60.8 °F /  16 °C 30.2in /  1021.7hPa SE 2.9mph /  4.7km/h 7mph /  11.3km/h 73% 0in /  0.0mm 536 W/m2
09:53 70 °F /  21.1 °C 60.6 °F /  15.9 °C 30.2in /  1021.7hPa Calm   5mph /  8km/h 72% 0in /  0.0mm 545 W/m2
09:58 70.3 °F /  21.3 °C 60.4 °F /  15.8 °C 30.2in /  1021.7hPa South 0.9mph /  1.4km/h 3mph /  4.8km/h 71% 0in /  0.0mm 563 W/m2
10:03 70.5 °F /  21.4 °C 59.9 °F /  15.5 °C 30.2in /  1021.3hPa ENE 2.9mph /  4.7km/h 9mph /  14.5km/h 69% 0in /  0.0mm 464 W/m2
10:08 70.7 °F /  21.5 °C 60.8 °F /  16 °C 30.2in /  1021.3hPa NE 4mph /  6.4km/h 5mph /  8km/h 71% 0in /  0.0mm 47 W/m2
10:13 71.1 °F /  21.7 °C 60.4 °F /  15.8 °C 30.2in /  1021.3hPa North 4mph /  6.4km/h 9mph /  14.5km/h 69% 0in /  0.0mm 596 W/m2
10:18 71.1 °F /  21.7 °C 59.9 °F /  15.5 °C 30.2in /  1021.3hPa WNW 0.9mph /  1.4km/h 11mph /  17.7km/h 68% 0in /  0.0mm 606 W/m2
10:23 71.2 °F /  21.8 °C 60.1 °F /  15.6 °C 30.2in /  1021.3hPa NE 2.9mph /  4.7km/h 7mph /  11.3km/h 68% 0in /  0.0mm 619 W/m2
10:28 71.4 °F /  21.9 °C 60.3 °F /  15.7 °C 30.2in /  1021.3hPa NW 0.9mph /  1.4km/h 3mph /  4.8km/h 68% 0in /  0.0mm 635 W/m2
10:33 71.8 °F /  22.1 °C 60.6 °F /  15.9 °C 30.2in /  1021.3hPa SSE 4mph /  6.4km/h 7mph /  11.3km/h 68% 0in /  0.0mm 647 W/m2
10:39 72.1 °F /  22.3 °C 60.6 °F /  15.9 °C 30.2in /  1021.3hPa WNW 4mph /  6.4km/h 8mph /  12.9km/h 67% 0in /  0.0mm 657 W/m2
10:44 72 °F /  22.2 °C 60.4 °F /  15.8 °C 30.2in /  1021.3hPa NNW 6mph /  9.7km/h 11mph /  17.7km/h 67% 0in /  0.0mm 670 W/m2
10:49 72.1 °F /  22.3 °C 60.6 °F /  15.9 °C 30.2in /  1021.3hPa East 2mph /  3.2km/h 9mph /  14.5km/h 67% 0in /  0.0mm 682 W/m2
10:54 72.7 °F /  22.6 °C 60.3 °F /  15.7 °C 30.2in /  1021.3hPa ENE 0.9mph /  1.4km/h 5mph /  8km/h 65% 0in /  0.0mm 693 W/m2
10:59 72.9 °F /  22.7 °C 60.4 °F /  15.8 °C 30.2in /  1021.3hPa NW 2.9mph /  4.7km/h 7mph /  11.3km/h 65% 0in /  0.0mm 701 W/m2
11:04 73.2 °F /  22.9 °C 60.8 °F /  16 °C 30.2in /  1021.3hPa ENE 4.9mph /  7.9km/h 8mph /  12.9km/h 65% 0in /  0.0mm 715 W/m2
11:09 73.6 °F /  23.1 °C 60.6 °F /  15.9 °C 30.2in /  1021.3hPa NE 2mph /  3.2km/h 8mph /  12.9km/h 64% 0in /  0.0mm 726 W/m2
11:14 73.9 °F /  23.3 °C 60.6 °F /  15.9 °C 30.2in /  1021.3hPa NW 4mph /  6.4km/h 12mph /  19.3km/h 63% 0in /  0.0mm 733 W/m2
11:19 73.9 °F /  23.3 °C 61 °F /  16.1 °C 30.2in /  1021.3hPa NNW 2.9mph /  4.7km/h 4mph /  6.4km/h 64% 0in /  0.0mm 747 W/m2
11:24 74.1 °F /  23.4 °C 60.3 °F /  15.7 °C 30.2in /  1021.3hPa South 2mph /  3.2km/h 13mph /  20.9km/h 62% 0in /  0.0mm 756 W/m2
11:29 74.5 °F /  23.6 °C 60.6 °F /  15.9 °C 30.2in /  1021.3hPa SE 4mph /  6.4km/h 10mph /  16.1km/h 62% 0in /  0.0mm 768 W/m2
11:34 74.7 °F /  23.7 °C 60.8 °F /  16 °C 30.2in /  1021.3hPa WNW 4mph /  6.4km/h 6mph /  9.7km/h 62% 0in /  0.0mm 770 W/m2
11:39 74.7 °F /  23.7 °C 60.8 °F /  16 °C 30.2in /  1021.3hPa NNW 6mph /  9.7km/h 10mph /  16.1km/h 62% 0in /  0.0mm 777 W/m2
11:44 74.8 °F /  23.8 °C 61.3 °F /  16.3 °C 30.2in /  1021.3hPa North 4.9mph /  7.9km/h 8mph /  12.9km/h 63% 0in /  0.0mm 793 W/m2
11:49 75.6 °F /  24.2 °C 61.2 °F /  16.2 °C 30.2in /  1021.3hPa WNW 0.9mph /  1.4km/h 8mph /  12.9km/h 61% 0in /  0.0mm 800 W/m2
11:54 75.6 °F /  24.2 °C 60.6 °F /  15.9 °C 30.2in /  1021.3hPa NW 6mph /  9.7km/h 10mph /  16.1km/h 60% 0in /  0.0mm 803 W/m2
11:59 75.6 °F /  24.2 °C 60.3 °F /  15.7 °C 30.2in /  1021.0hPa WNW 6.9mph /  11.1km/h 7mph /  11.3km/h 59% 0in /  0.0mm 810 W/m2
12:04 75.6 °F /  24.2 °C 60.6 °F /  15.9 °C 30.2in /  1021.3hPa SSW 2mph /  3.2km/h 6mph /  9.7km/h 60% 0in /  0.0mm 817 W/m2
12:09 75.7 °F /  24.3 °C 60.8 °F /  16 °C 30.2in /  1021.0hPa East 0.9mph /  1.4km/h 5mph /  8km/h 60% 0in /  0.0mm 823 W/m2
12:14 75.9 °F /  24.4 °C 59.5 °F /  15.3 °C 30.2in /  1021.0hPa NW 4mph /  6.4km/h 11mph /  17.7km/h 57% 0in /  0.0mm 838 W/m2
12:19 76.1 °F /  24.5 °C 60.3 °F /  15.7 °C 30.2in /  1021.0hPa NNW 4mph /  6.4km/h 12mph /  19.3km/h 58% 0in /  0.0mm 842 W/m2
12:24 76.3 °F /  24.6 °C 61 °F /  16.1 °C 30.2in /  1021.0hPa NNW 4.9mph /  7.9km/h 11mph /  17.7km/h 59% 0in /  0.0mm 840 W/m2
12:29 76.5 °F /  24.7 °C 60.1 °F /  15.6 °C 30.1in /  1020.7hPa North 2mph /  3.2km/h 12mph /  19.3km/h 57% 0in /  0.0mm 851 W/m2
12:34 76.8 °F /  24.9 °C 60.4 °F /  15.8 °C 30.2in /  1021.0hPa East 2.9mph /  4.7km/h 10mph /  16.1km/h 57% 0in /  0.0mm 856 W/m2
12:39 77.2 °F /  25.1 °C 60.3 °F /  15.7 °C 30.2in /  1021.0hPa NE 8.9mph /  14.3km/h 9mph /  14.5km/h 56% 0in /  0.0mm 861 W/m2
12:44 77.4 °F /  25.2 °C 60.4 °F /  15.8 °C 30.1in /  1020.7hPa East 8.1mph /  13km/h 8mph /  12.9km/h 56% 0in /  0.0mm 877 W/m2
12:49 77.5 °F /  25.3 °C 60.6 °F /  15.9 °C 30.1in /  1020.7hPa NNW 4mph /  6.4km/h 7mph /  11.3km/h 56% 0in /  0.0mm 877 W/m2
12:54 77.7 °F /  25.4 °C 60.8 °F /  16 °C 30.1in /  1020.7hPa NW 2mph /  3.2km/h 7mph /  11.3km/h 56% 0in /  0.0mm 884 W/m2
12:59 77.9 °F /  25.5 °C 61 °F /  16.1 °C 30.1in /  1020.7hPa NE 4mph /  6.4km/h 10mph /  16.1km/h 56% 0in /  0.0mm 889 W/m2
13:04 78.1 °F /  25.6 °C 61.2 °F /  16.2 °C 30.1in /  1020.7hPa ENE 4.9mph /  7.9km/h 10mph /  16.1km/h 56% 0in /  0.0mm 891 W/m2
13:09 78.4 °F /  25.8 °C 61 °F /  16.1 °C 30.1in /  1020.7hPa ESE 2mph /  3.2km/h 11mph /  17.7km/h 55% 0in /  0.0mm 898 W/m2
13:14 78.6 °F /  25.9 °C 61.2 °F /  16.2 °C 30.1in /  1020.7hPa West 0.9mph /  1.4km/h 5mph /  8km/h 55% 0in /  0.0mm 895 W/m2
13:19 79 °F /  26.1 °C 61 °F /  16.1 °C 30.1in /  1020.7hPa ENE 4.9mph /  7.9km/h 10mph /  16.1km/h 54% 0in /  0.0mm 898 W/m2
13:24 79 °F /  26.1 °C 61.5 °F /  16.4 °C 30.1in /  1020.7hPa ENE 2mph /  3.2km/h 8mph /  12.9km/h 55% 0in /  0.0mm 904 W/m2
13:29 79.2 °F /  26.2 °C 60.6 °F /  15.9 °C 30.1in /  1020.7hPa ESE 4mph /  6.4km/h 7mph /  11.3km/h 53% 0in /  0.0mm 907 W/m2
13:34 79.3 °F /  26.3 °C 61.7 °F /  16.5 °C 30.1in /  1020.3hPa ENE 4.9mph /  7.9km/h 6mph /  9.7km/h 55% 0in /  0.0mm 902 W/m2
13:39 79.3 °F /  26.3 °C 61.2 °F /  16.2 °C 30.1in /  1020.3hPa NE 2mph /  3.2km/h 8mph /  12.9km/h 54% 0in /  0.0mm 900 W/m2
13:44 79.5 °F /  26.4 °C 62.4 °F /  16.9 °C 30.1in /  1020.3hPa NNW 2mph /  3.2km/h 4mph /  6.4km/h 56% 0in /  0.0mm 895 W/m2
13:49 79.9 °F /  26.6 °C 62.2 °F /  16.8 °C 30.1in /  1020.3hPa ENE 0.9mph /  1.4km/h 6mph /  9.7km/h 55% 0in /  0.0mm 902 W/m2
13:54 79.7 °F /  26.5 °C 62.1 °F /  16.7 °C 30.1in /  1020.3hPa NE 6mph /  9.7km/h 10mph /  16.1km/h 55% 0in /  0.0mm 895 W/m2
13:59 79.9 °F /  26.6 °C 62.2 °F /  16.8 °C 30.1in /  1020.3hPa NNE 2mph /  3.2km/h 4mph /  6.4km/h 55% 0in /  0.0mm 896 W/m2
14:04 80.1 °F /  26.7 °C 63 °F /  17.2 °C 30.1in /  1020.0hPa NE 0.9mph /  1.4km/h 10mph /  16.1km/h 56% 0in /  0.0mm 896 W/m2
14:09 80.4 °F /  26.9 °C 62.8 °F /  17.1 °C 30.1in /  1020.0hPa Calm   4mph /  6.4km/h 55% 0in /  0.0mm 902 W/m2
14:14 81 °F /  27.2 °C 62.2 °F /  16.8 °C 30.1in /  1020.0hPa ENE 2.9mph /  4.7km/h 6mph /  9.7km/h 53% 0in /  0.0mm 891 W/m2
14:19 81 °F /  27.2 °C 61.7 °F /  16.5 °C 30.1in /  1020.0hPa ENE 6.9mph /  11.1km/h 7mph /  11.3km/h 52% 0in /  0.0mm 891 W/m2
14:24 80.8 °F /  27.1 °C 62.1 °F /  16.7 °C 30.1in /  1020.0hPa WNW 4.9mph /  7.9km/h 8mph /  12.9km/h 53% 0in /  0.0mm 888 W/m2
14:29 81 °F /  27.2 °C 61.2 °F /  16.2 °C 30.1in /  1020.0hPa ENE 4mph /  6.4km/h 9mph /  14.5km/h 51% 0in /  0.0mm 881 W/m2
14:34 81 °F /  27.2 °C 62.8 °F /  17.1 °C 30.1in /  1020.0hPa ENE 2.9mph /  4.7km/h 3mph /  4.8km/h 54% 0in /  0.0mm 888 W/m2
14:39 81.1 °F /  27.3 °C 63 °F /  17.2 °C 30.1in /  1019.6hPa NE 4mph /  6.4km/h 11mph /  17.7km/h 54% 0in /  0.0mm 874 W/m2
14:44 81.3 °F /  27.4 °C 61.5 °F /  16.4 °C 30.1in /  1019.6hPa ESE 0.9mph /  1.4km/h 9mph /  14.5km/h 51% 0in /  0.0mm 884 W/m2
14:49 81.3 °F /  27.4 °C 62.1 °F /  16.7 °C 30.1in /  1019.6hPa WNW 2.9mph /  4.7km/h 11mph /  17.7km/h 52% 0in /  0.0mm 872 W/m2
14:54 81.7 °F /  27.6 °C 61.9 °F /  16.6 °C 30.1in /  1019.6hPa East 2mph /  3.2km/h 10mph /  16.1km/h 51% 0in /  0.0mm 872 W/m2
14:59 81.7 °F /  27.6 °C 61.9 °F /  16.6 °C 30.1in /  1019.6hPa NNW 4mph /  6.4km/h 9mph /  14.5km/h 51% 0in /  0.0mm 874 W/m2
15:04 81.9 °F /  27.7 °C 62.4 °F /  16.9 °C 30.1in /  1019.6hPa NE 2mph /  3.2km/h 10mph /  16.1km/h 52% 0in /  0.0mm 861 W/m2
15:09 81.9 °F /  27.7 °C 62.4 °F /  16.9 °C 30.1in /  1019.6hPa NW 2.9mph /  4.7km/h 9mph /  14.5km/h 52% 0in /  0.0mm 856 W/m2
15:14 82.2 °F /  27.9 °C 61.7 °F /  16.5 °C 30.1in /  1019.6hPa ENE 2mph /  3.2km/h 11mph /  17.7km/h 50% 0in /  0.0mm 861 W/m2
15:19 82.2 °F /  27.9 °C 61.7 °F /  16.5 °C 30.1in /  1019.6hPa ENE 4mph /  6.4km/h 6mph /  9.7km/h 50% 0in /  0.0mm 847 W/m2
15:24 82.4 °F /  28 °C 62.4 °F /  16.9 °C 30.1in /  1019.3hPa WNW 2mph /  3.2km/h 6mph /  9.7km/h 51% 0in /  0.0mm 837 W/m2
15:29 82.6 °F /  28.1 °C 61 °F /  16.1 °C 30.1in /  1019.3hPa WNW 2mph /  3.2km/h 5mph /  8km/h 48% 0in /  0.0mm 844 W/m2
15:34 82.6 °F /  28.1 °C 61.5 °F /  16.4 °C 30.1in /  1019.3hPa South 0.9mph /  1.4km/h 8mph /  12.9km/h 49% 0in /  0.0mm 828 W/m2
15:39 82.8 °F /  28.2 °C 62.2 °F /  16.8 °C 30.1in /  1019.3hPa North 2mph /  3.2km/h 4mph /  6.4km/h 50% 0in /  0.0mm 816 W/m2
15:44 82.9 °F /  28.3 °C 63 °F /  17.2 °C 30.1in /  1019.3hPa NNW 0.9mph /  1.4km/h 6mph /  9.7km/h 51% 0in /  0.0mm 814 W/m2
15:49 82.8 °F /  28.2 °C 62.2 °F /  16.8 °C 30.1in /  1019.3hPa NNW 6mph /  9.7km/h 9mph /  14.5km/h 50% 0in /  0.0mm 809 W/m2
15:54 82.9 °F /  28.3 °C 62.4 °F /  16.9 °C 30.1in /  1019.3hPa SSE 2mph /  3.2km/h 7mph /  11.3km/h 50% 0in /  0.0mm 795 W/m2
15:59 82.9 °F /  28.3 °C 61.9 °F /  16.6 °C 30.1in /  1019.0hPa NNE 2.9mph /  4.7km/h 8mph /  12.9km/h 49% 0in /  0.0mm 786 W/m2
16:04 83.1 °F /  28.4 °C 62.6 °F /  17 °C 30.1in /  1019.3hPa SE 2mph /  3.2km/h 6mph /  9.7km/h 50% 0in /  0.0mm 772 W/m2
16:09 83.1 °F /  28.4 °C 61.3 °F /  16.3 °C 30.1in /  1019.0hPa West 2.9mph /  4.7km/h 12mph /  19.3km/h 48% 0in /  0.0mm 765 W/m2
16:14 83.1 °F /  28.4 °C 63.1 °F /  17.3 °C 30.1in /  1019.0hPa WNW 2.9mph /  4.7km/h 6mph /  9.7km/h 51% 0in /  0.0mm 766 W/m2
16:19 83.5 °F /  28.6 °C 63 °F /  17.2 °C 30.1in /  1019.0hPa ENE 4.9mph /  7.9km/h 11mph /  17.7km/h 50% 0in /  0.0mm 751 W/m2
16:24 83.5 °F /  28.6 °C 61.7 °F /  16.5 °C 30.1in /  1019.0hPa ESE 2.9mph /  4.7km/h 7mph /  11.3km/h 48% 0in /  0.0mm 745 W/m2
16:29 83.5 °F /  28.6 °C 61.2 °F /  16.2 °C 30.1in /  1019.0hPa NNW 2mph /  3.2km/h 6mph /  9.7km/h 47% 0in /  0.0mm 737 W/m2
16:34 83.3 °F /  28.5 °C 60.4 °F /  15.8 °C 30.1in /  1019.0hPa West 2.9mph /  4.7km/h 8mph /  12.9km/h 46% 0in /  0.0mm 728 W/m2
16:39 83.1 °F /  28.4 °C 60.3 °F /  15.7 °C 30.1in /  1019.0hPa NW 4mph /  6.4km/h 9mph /  14.5km/h 46% 0in /  0.0mm 719 W/m2
16:44 82.9 °F /  28.3 °C 61.2 °F /  16.2 °C 30.1in /  1019.0hPa North 2.9mph /  4.7km/h 7mph /  11.3km/h 48% 0in /  0.0mm 707 W/m2
16:49 83.1 °F /  28.4 °C 62.1 °F /  16.7 °C 30.1in /  1019.0hPa NW 2mph /  3.2km/h 6mph /  9.7km/h 49% 0in /  0.0mm 693 W/m2
16:54 83.5 °F /  28.6 °C 61.7 °F /  16.5 °C 30.1in /  1019.0hPa SW 0.9mph /  1.4km/h 3mph /  4.8km/h 48% 0in /  0.0mm 686 W/m2
16:59 84 °F /  28.9 °C 60.4 °F /  15.8 °C 30.1in /  1019.0hPa WSW 2mph /  3.2km/h 5mph /  8km/h 45% 0in /  0.0mm 677 W/m2
17:04 84.4 °F /  29.1 °C 61.3 °F /  16.3 °C 30.1in /  1019.0hPa NNE 4.9mph /  7.9km/h 10mph /  16.1km/h 46% 0in /  0.0mm 663 W/m2
17:09 84.4 °F /  29.1 °C 60.8 °F /  16 °C 30.1in /  1019.0hPa NNW 0.9mph /  1.4km/h 4mph /  6.4km/h 45% 0in /  0.0mm 657 W/m2
17:14 84.4 °F /  29.1 °C 59.4 °F /  15.2 °C 30.1in /  1019.0hPa WNW 4mph /  6.4km/h 11mph /  17.7km/h 43% 0in /  0.0mm 643 W/m2
17:19 84.4 °F /  29.1 °C 59.4 °F /  15.2 °C 30.1in /  1019.0hPa East 2.9mph /  4.7km/h 7mph /  11.3km/h 43% 0in /  0.0mm 629 W/m2
17:24 84.2 °F /  29 °C 59.9 °F /  15.5 °C 30.1in /  1019.0hPa West 8.1mph /  13km/h 10mph /  16.1km/h 44% 0in /  0.0mm 613 W/m2
17:29 83.8 °F /  28.8 °C 60.3 °F /  15.7 °C 30.1in /  1019.0hPa West 6mph /  9.7km/h 8mph /  12.9km/h 45% 0in /  0.0mm 599 W/m2
17:34 83.8 °F /  28.8 °C 60.3 °F /  15.7 °C 30.1in /  1018.6hPa NNE 2mph /  3.2km/h 5mph /  8km/h 45% 0in /  0.0mm 582 W/m2
17:39 83.8 °F /  28.8 °C 60.3 °F /  15.7 °C 30.1in /  1018.6hPa NE 2mph /  3.2km/h 5mph /  8km/h 45% 0in /  0.0mm 571 W/m2
17:44 83.8 °F /  28.8 °C 60.3 °F /  15.7 °C 30.1in /  1018.6hPa WSW 0.9mph /  1.4km/h 6mph /  9.7km/h 45% 0in /  0.0mm 559 W/m2
17:49 84 °F /  28.9 °C 59.7 °F /  15.4 °C 30.1in /  1018.6hPa SW 2mph /  3.2km/h 9mph /  14.5km/h 44% 0in /  0.0mm 543 W/m2
17:54 83.8 °F /  28.8 °C 60.8 °F /  16 °C 30.1in /  1018.6hPa WSW 2.9mph /  4.7km/h 8mph /  12.9km/h 46% 0in /  0.0mm 533 W/m2
17:59 83.8 °F /  28.8 °C 60.8 °F /  16 °C 30.1in /  1018.6hPa WSW 0.9mph /  1.4km/h 4mph /  6.4km/h 46% 0in /  0.0mm 519 W/m2
18:04 83.7 °F /  28.7 °C 60.1 °F /  15.6 °C 30.1in /  1018.6hPa ESE 0.9mph /  1.4km/h 8mph /  12.9km/h 45% 0in /  0.0mm 501 W/m2
18:09 83.7 °F /  28.7 °C 61.3 °F /  16.3 °C 30.1in /  1018.3hPa North 4.9mph /  7.9km/h 8mph /  12.9km/h 47% 0in /  0.0mm 492 W/m2
18:14 83.8 °F /  28.8 °C 60.8 °F /  16 °C 30.1in /  1018.6hPa NE 2mph /  3.2km/h 3mph /  4.8km/h 46% 0in /  0.0mm 478 W/m2
18:19 83.8 °F /  28.8 °C 60.8 °F /  16 °C 30.1in /  1018.6hPa SE 0.9mph /  1.4km/h 5mph /  8km/h 46% 0in /  0.0mm 462 W/m2
18:24 83.8 °F /  28.8 °C 61.5 °F /  16.4 °C 30.1in /  1018.3hPa West 2.9mph /  4.7km/h 5mph /  8km/h 47% 0in /  0.0mm 452 W/m2
18:29 83.5 °F /  28.6 °C 60.4 °F /  15.8 °C 30.1in /  1018.3hPa NNW 4mph /  6.4km/h 6mph /  9.7km/h 46% 0in /  0.0mm 434 W/m2
18:34 83.5 °F /  28.6 °C 59.9 °F /  15.5 °C 30.1in /  1018.3hPa NNW 6mph /  9.7km/h 6mph /  9.7km/h 45% 0in /  0.0mm 410 W/m2
18:39 83.3 °F /  28.5 °C 60.4 °F /  15.8 °C 30.1in /  1018.6hPa SSE 2mph /  3.2km/h 5mph /  8km/h 46% 0in /  0.0mm 381 W/m2
18:44 83.1 °F /  28.4 °C 59.5 °F /  15.3 °C 30.1in /  1018.6hPa ENE 4.9mph /  7.9km/h 10mph /  16.1km/h 45% 0in /  0.0mm 345 W/m2
18:49 83.1 °F /  28.4 °C 59.5 °F /  15.3 °C 30.1in /  1018.3hPa NE 4.9mph /  7.9km/h 7mph /  11.3km/h 45% 0in /  0.0mm 325 W/m2
18:54 82.9 °F /  28.3 °C 59.4 °F /  15.2 °C 30.1in /  1018.3hPa North 4mph /  6.4km/h 7mph /  11.3km/h 45% 0in /  0.0mm 302 W/m2
18:59 82.9 °F /  28.3 °C 60.6 °F /  15.9 °C 30.1in /  1018.3hPa SW 0.9mph /  1.4km/h 3mph /  4.8km/h 47% 0in /  0.0mm 283 W/m2
19:04 82.9 °F /  28.3 °C 60.6 °F /  15.9 °C 30.1in /  1018.3hPa NW 6.9mph /  11.1km/h 7mph /  11.3km/h 47% 0in /  0.0mm 253 W/m2
19:09 83.1 °F /  28.4 °C 60.8 °F /  16 °C 30.1in /  1018.3hPa NE 2mph /  3.2km/h 6mph /  9.7km/h 47% 0in /  0.0mm 232 W/m2
19:14 82.9 °F /  28.3 °C 60.6 °F /  15.9 °C 30.1in /  1018.3hPa North 4.9mph /  7.9km/h 6mph /  9.7km/h 47% 0in /  0.0mm 223 W/m2
19:19 82.6 °F /  28.1 °C 60.3 °F /  15.7 °C 30.1in /  1018.3hPa ENE 0.9mph /  1.4km/h 3mph /  4.8km/h 47% 0in /  0.0mm 232 W/m2
19:24 82.6 °F /  28.1 °C 61 °F /  16.1 °C 30.1in /  1018.3hPa North 0.9mph /  1.4km/h 4mph /  6.4km/h 48% 0in /  0.0mm 243 W/m2
19:29 82.2 °F /  27.9 °C 60.6 °F /  15.9 °C 30.1in /  1018.3hPa East 4mph /  6.4km/h 8mph /  12.9km/h 48% 0in /  0.0mm 243 W/m2
19:34 82.2 °F /  27.9 °C 61.2 °F /  16.2 °C 30.1in /  1018.6hPa NE 0.9mph /  1.4km/h 8mph /  12.9km/h 49% 0in /  0.0mm 236 W/m2
19:39 82 °F /  27.8 °C 61.5 °F /  16.4 °C 30.1in /  1018.6hPa North 6mph /  9.7km/h 8mph /  12.9km/h 50% 0in /  0.0mm 221 W/m2
19:44 81.9 °F /  27.7 °C 61.3 °F /  16.3 °C 30.1in /  1018.6hPa NW 0.9mph /  1.4km/h 4mph /  6.4km/h 50% 0in /  0.0mm 209 W/m2
19:49 81.7 °F /  27.6 °C 61.2 °F /  16.2 °C 30.1in /  1018.6hPa SW 0.9mph /  1.4km/h 8mph /  12.9km/h 50% 0in /  0.0mm 188 W/m2
19:55 81.5 °F /  27.5 °C 61 °F /  16.1 °C 30.1in /  1018.6hPa NNW 2mph /  3.2km/h 6mph /  9.7km/h 50% 0in /  0.0mm 160 W/m2
20:00 81.3 °F /  27.4 °C 61.5 °F /  16.4 °C 30.1in /  1018.6hPa WNW 0.9mph /  1.4km/h 3mph /  4.8km/h 51% 0in /  0.0mm 139 W/m2
20:05 81.1 °F /  27.3 °C 61.3 °F /  16.3 °C 30.1in /  1018.6hPa North 2mph /  3.2km/h 5mph /  8km/h 51% 0in /  0.0mm 130 W/m2
20:10 80.8 °F /  27.1 °C 61.5 °F /  16.4 °C 30.1in /  1018.6hPa SW 2.9mph /  4.7km/h 5mph /  8km/h 52% 0in /  0.0mm 125 W/m2
20:15 80.8 °F /  27.1 °C 62.1 °F /  16.7 °C 30.1in /  1018.6hPa NW 0.9mph /  1.4km/h 4mph /  6.4km/h 53% 0in /  0.0mm 116 W/m2
20:20 80.6 °F /  27 °C 61.9 °F /  16.6 °C 30.1in /  1018.6hPa NNW 2mph /  3.2km/h 2mph /  3.2km/h 53% 0in /  0.0mm 104 W/m2
20:25 80.4 °F /  26.9 °C 61.7 °F /  16.5 °C 30.1in /  1018.6hPa SSE 2mph /  3.2km/h 4mph /  6.4km/h 53% 0in /  0.0mm 91 W/m2
20:30 80.1 °F /  26.7 °C 61.3 °F /  16.3 °C 30.1in /  1018.6hPa SSE 2mph /  3.2km/h 4mph /  6.4km/h 53% 0in /  0.0mm 77 W/m2
20:35 79.9 °F /  26.6 °C 61.2 °F /  16.2 °C 30.1in /  1018.6hPa SE 2mph /  3.2km/h 4mph /  6.4km/h 53% 0in /  0.0mm 69 W/m2
20:40 79.3 °F /  26.3 °C 61.7 °F /  16.5 °C 30.1in /  1019.0hPa WNW 0.9mph /  1.4km/h 7mph /  11.3km/h 55% 0in /  0.0mm 62 W/m2
20:45 79.2 °F /  26.2 °C 61.5 °F /  16.4 °C 30.1in /  1018.6hPa NNE 2mph /  3.2km/h 3mph /  4.8km/h 55% 0in /  0.0mm 49 W/m2
20:50 79 °F /  26.1 °C 61.9 °F /  16.6 °C 30.1in /  1019.0hPa NNW 4.9mph /  7.9km/h 6mph /  9.7km/h 56% 0in /  0.0mm 42 W/m2
20:55 78.6 °F /  25.9 °C 61.5 °F /  16.4 °C 30.1in /  1019.0hPa West 0.9mph /  1.4km/h 3mph /  4.8km/h 56% 0in /  0.0mm 37 W/m2
21:00 78.4 °F /  25.8 °C 61.9 °F /  16.6 °C 30.1in /  1019.0hPa NE 0.9mph /  1.4km/h 3mph /  4.8km/h 57% 0in /  0.0mm 32 W/m2
21:05 78.1 °F /  25.6 °C 62.1 °F /  16.7 °C 30.1in /  1019.0hPa Calm   2mph /  3.2km/h 58% 0in /  0.0mm 28 W/m2
21:10 77.9 °F /  25.5 °C 62.4 °F /  16.9 °C 30.1in /  1019.0hPa WSW 0.9mph /  1.4km/h 2mph /  3.2km/h 59% 0in /  0.0mm 23 W/m2
21:15 77.5 °F /  25.3 °C 62.6 °F /  17 °C 30.1in /  1019.0hPa Calm   2mph /  3.2km/h 60% 0in /  0.0mm 16 W/m2
Juneau County Weather
Compliments of Weather Underground - 4 mb